バーミンガム の空港の天気 - METARとTAF

バーミンガム国際空港 ( EGBB / BHX ) - イギリス バーミンガム
飛行場実況気象(Metar)
観測時間01/16 17:50 GMT (01/16 17:50 UTC)
風向・風速北西 6m/s
視程10km以上
天気現象
全天の8割程度の雲 雲底高度 940m
気温6℃
湿度76%
気圧1031hPa
METAREGBB 161750Z 32011KT 9999 BKN031 06/02 Q1031
過去の天気等 Google飛行場航空写真 Wunderground天気予報

過去48時間のMETAR

飛行場予報(TAF)
発表時間: 1/16 17:02 GMT (1/16 17:02 UTC)
予報対象時間: 16日18時 GMT ~ 17日18時 GMT
風向・風速北西 4m/s
視程10km以上
全天の4割程度の雲 雲底高度 760m
16日21時 GMT から 確率 30% で
視程7000m
17日3時 GMT ~ 17日12時 GMT に 確率 30% で一時的に
全天の8割程度の雲 雲底高度 180m
17日6時 GMT から 確率 30% で
視程4000m
天気現象もや
17日15時 GMT ~ 17日18時 GMT に徐々に
視程7000m
17日16時 GMT から 確率 40% で
視程4000m
天気現象もや
17日16時 GMT ~ 17日18時 GMT に 確率 30% で一時的に
全天の8割程度の雲 雲底高度 180m
TAF EGBB 161702Z 1618/1718 32007KT 9999 SCT025
PROB30 1621/1706 7000
PROB30 TEMPO 1703/1712 BKN006
PROB30 1706/1711 4000 BR
BECMG 1715/1718 7000
PROB40 1716/1718 4000 BR
PROB30 TEMPO 1716/1718 BKN006